sensor_id;sensor_type;location;lat;lon;timestamp;temperature;humidity
10417;DHT22;62605;49.432;8.680;2022-10-28T04:01:17;18.80;99.90
10417;DHT22;62605;49.432;8.680;2022-10-28T04:03:44;18.80;99.90
10417;DHT22;62605;49.432;8.680;2022-10-28T04:06:12;18.80;99.90
10417;DHT22;62605;49.432;8.680;2022-10-28T04:08:41;18.80;99.90
10417;DHT22;62605;49.432;8.680;2022-10-28T04:11:09;18.80;99.90
10417;DHT22;62605;49.432;8.680;2022-10-28T04:13:36;18.80;99.90
10417;DHT22;62605;49.432;8.680;2022-10-28T04:16:03;18.80;99.90
10417;DHT22;62605;49.432;8.680;2022-10-28T04:18:33;18.80;99.90
10417;DHT22;62605;49.432;8.680;2022-10-28T04:21:03;19.00;99.90
10417;DHT22;62605;49.432;8.680;2022-10-28T04:23:31;18.90;99.90
10417;DHT22;62605;49.432;8.680;2022-10-28T04:25:59;18.90;99.90
10417;DHT22;62605;49.432;8.680;2022-10-28T04:28:27;18.40;99.90
10417;DHT22;62605;49.432;8.680;2022-10-28T04:30:54;18.20;99.90
10417;DHT22;62605;49.432;8.680;2022-10-28T04:33:21;17.90;99.90
10417;DHT22;62605;49.432;8.680;2022-10-28T04:35:50;17.60;99.90
10417;DHT22;62605;49.432;8.680;2022-10-28T04:38:19;17.40;99.90
10417;DHT22;62605;49.432;8.680;2022-10-28T04:40:48;17.30;99.90
10417;DHT22;62605;49.432;8.680;2022-10-28T04:43:15;17.20;99.90
10417;DHT22;62605;49.432;8.680;2022-10-28T04:45:44;17.20;99.90
10417;DHT22;62605;49.432;8.680;2022-10-28T04:48:12;17.10;99.90
10417;DHT22;62605;49.432;8.680;2022-10-28T04:50:41;17.00;99.90
10417;DHT22;62605;49.432;8.680;2022-10-28T04:53:12;16.90;99.90
10417;DHT22;62605;49.432;8.680;2022-10-28T04:55:40;17.00;99.90
10417;DHT22;62605;49.432;8.680;2022-10-28T04:58:08;16.90;99.90
10417;DHT22;62605;49.432;8.680;2022-10-28T05:00:35;16.90;99.90
10417;DHT22;62605;49.432;8.680;2022-10-28T05:03:03;16.70;99.90
10417;DHT22;62605;49.432;8.680;2022-10-28T05:05:30;16.50;99.90
10417;DHT22;62605;49.432;8.680;2022-10-28T05:07:58;16.40;99.90
10417;DHT22;62605;49.432;8.680;2022-10-28T05:10:27;16.20;99.90
10417;DHT22;62605;49.432;8.680;2022-10-28T05:12:56;16.20;99.90
10417;DHT22;62605;49.432;8.680;2022-10-28T05:15:24;16.20;99.90
10417;DHT22;62605;49.432;8.680;2022-10-28T05:17:52;16.20;99.90
10417;DHT22;62605;49.432;8.680;2022-10-28T05:20:19;16.20;99.90
10417;DHT22;62605;49.432;8.680;2022-10-28T05:22:50;16.20;99.90
10417;DHT22;62605;49.432;8.680;2022-10-28T05:25:19;16.40;99.90
10417;DHT22;62605;49.432;8.680;2022-10-28T05:27:50;16.40;99.90
10417;DHT22;62605;49.432;8.680;2022-10-28T05:30:17;16.20;99.90
10417;DHT22;62605;49.432;8.680;2022-10-28T05:32:45;16.10;99.90
10417;DHT22;62605;49.432;8.680;2022-10-28T05:35:14;16.20;99.90
10417;DHT22;62605;49.432;8.680;2022-10-28T05:37:42;16.20;99.90
10417;DHT22;62605;49.432;8.680;2022-10-28T05:40:11;16.10;99.90
10417;DHT22;62605;49.432;8.680;2022-10-28T05:42:43;16.00;99.90
10417;DHT22;62605;49.432;8.680;2022-10-28T05:45:11;15.90;99.90
10417;DHT22;62605;49.432;8.680;2022-10-28T05:47:41;15.70;99.90
10417;DHT22;62605;49.432;8.680;2022-10-28T05:50:11;15.60;99.90
10417;DHT22;62605;49.432;8.680;2022-10-28T05:52:38;15.60;99.90
10417;DHT22;62605;49.432;8.680;2022-10-28T05:55:07;15.50;99.90
10417;DHT22;62605;49.432;8.680;2022-10-28T05:57:34;15.40;99.90
10417;DHT22;62605;49.432;8.680;2022-10-28T06:00:04;15.50;99.90
10417;DHT22;62605;49.432;8.680;2022-10-28T06:02:33;15.60;99.90
10417;DHT22;62605;49.432;8.680;2022-10-28T06:05:01;15.60;99.90
10417;DHT22;62605;49.432;8.680;2022-10-28T06:07:28;15.70;99.90
10417;DHT22;62605;49.432;8.680;2022-10-28T06:09:56;15.70;2.10
10417;DHT22;62605;49.432;8.680;2022-10-28T06:12:23;16.10;99.90
10417;DHT22;62605;49.432;8.680;2022-10-28T06:14:51;16.20;99.90
10417;DHT22;62605;49.432;8.680;2022-10-28T06:17:19;16.70;99.90
10417;DHT22;62605;49.432;8.680;2022-10-28T06:19:50;17.30;99.90
10417;DHT22;62605;49.432;8.680;2022-10-28T06:22:17;17.70;99.90
10417;DHT22;62605;49.432;8.680;2022-10-28T06:24:46;18.20;99.90
10417;DHT22;62605;49.432;8.680;2022-10-28T06:27:14;18.20;99.90
10417;DHT22;62605;49.432;8.680;2022-10-28T06:29:42;18.30;99.90
10417;DHT22;62605;49.432;8.680;2022-10-28T06:32:10;18.40;99.90
10417;DHT22;62605;49.432;8.680;2022-10-28T06:34:39;18.50;99.90
10417;DHT22;62605;49.432;8.680;2022-10-28T06:37:09;18.50;99.90
10417;DHT22;62605;49.432;8.680;2022-10-28T06:39:36;18.50;99.90
10417;DHT22;62605;49.432;8.680;2022-10-28T06:42:05;18.40;99.90
10417;DHT22;62605;49.432;8.680;2022-10-28T06:44:32;18.20;99.90
10417;DHT22;62605;49.432;8.680;2022-10-28T06:47:01;17.40;99.90
10417;DHT22;62605;49.432;8.680;2022-10-28T06:49:28;17.00;99.90
10417;DHT22;62605;49.432;8.680;2022-10-28T06:51:56;16.80;99.90
10417;DHT22;62605;49.432;8.680;2022-10-28T06:54:24;16.50;99.90
10417;DHT22;62605;49.432;8.680;2022-10-28T06:56:52;16.40;99.90
10417;DHT22;62605;49.432;8.680;2022-10-28T06:59:19;16.40;99.90
10417;DHT22;62605;49.432;8.680;2022-10-28T07:01:49;16.30;99.90
10417;DHT22;62605;49.432;8.680;2022-10-28T07:04:16;16.20;99.90
10417;DHT22;62605;49.432;8.680;2022-10-28T07:06:44;16.20;1.00
10417;DHT22;62605;49.432;8.680;2022-10-28T07:09:15;16.20;99.90
10417;DHT22;62605;49.432;8.680;2022-10-28T07:11:47;16.20;99.90
10417;DHT22;62605;49.432;8.680;2022-10-28T07:14:16;16.20;99.90
10417;DHT22;62605;49.432;8.680;2022-10-28T07:16:44;16.40;99.90
10417;DHT22;62605;49.432;8.680;2022-10-28T07:19:11;16.40;99.90
10417;DHT22;62605;49.432;8.680;2022-10-28T07:21:39;16.50;99.90
10417;DHT22;62605;49.432;8.680;2022-10-28T07:24:07;16.50;99.90
10417;DHT22;62605;49.432;8.680;2022-10-28T07:26:36;16.50;99.90
10417;DHT22;62605;49.432;8.680;2022-10-28T07:29:05;16.50;99.90
10417;DHT22;62605;49.432;8.680;2022-10-28T07:31:33;16.50;99.90
10417;DHT22;62605;49.432;8.680;2022-10-28T07:34:01;16.50;99.90
10417;DHT22;62605;49.432;8.680;2022-10-28T07:36:28;16.40;99.90
10417;DHT22;62605;49.432;8.680;2022-10-28T07:38:56;16.40;1.00
10417;DHT22;62605;49.432;8.680;2022-10-28T07:41:23;16.40;1.00
10417;DHT22;62605;49.432;8.680;2022-10-28T07:43:51;16.40;1.00
10417;DHT22;62605;49.432;8.680;2022-10-28T07:46:20;16.40;1.00
10417;DHT22;62605;49.432;8.680;2022-10-28T07:48:48;16.50;99.90
10417;DHT22;62605;49.432;8.680;2022-10-28T07:51:15;16.40;1.00
10417;DHT22;62605;49.432;8.680;2022-10-28T07:53:44;16.40;1.00
10417;DHT22;62605;49.432;8.680;2022-10-28T11:45:32;21.20;99.90
10417;DHT22;62605;49.432;8.680;2022-10-28T11:48:12;21.20;99.90
10417;DHT22;62605;49.432;8.680;2022-10-28T11:50:57;21.20;99.90
10417;DHT22;62605;49.432;8.680;2022-10-28T11:53:53;21.20;99.90
10417;DHT22;62605;49.432;8.680;2022-10-28T11:56:29;21.10;99.90
10417;DHT22;62605;49.432;8.680;2022-10-28T12:01:58;21.00;99.90
10417;DHT22;62605;49.432;8.680;2022-10-28T12:04:47;21.20;99.90
10417;DHT22;62605;49.432;8.680;2022-10-28T12:07:37;21.20;99.90
10417;DHT22;62605;49.432;8.680;2022-10-28T12:10:38;21.30;99.90
10417;DHT22;62605;49.432;8.680;2022-10-28T12:13:16;21.40;99.90
10417;DHT22;62605;49.432;8.680;2022-10-28T12:15:51;21.40;99.90
10417;DHT22;62605;49.432;8.680;2022-10-28T12:18:26;21.60;99.90
10417;DHT22;62605;49.432;8.680;2022-10-28T12:21:01;21.60;99.90
10417;DHT22;62605;49.432;8.680;2022-10-28T12:23:31;21.70;99.90
10417;DHT22;62605;49.432;8.680;2022-10-28T12:26:01;21.70;99.90
10417;DHT22;62605;49.432;8.680;2022-10-28T12:28:35;21.80;99.90
10417;DHT22;62605;49.432;8.680;2022-10-28T12:31:14;21.90;99.90
10417;DHT22;62605;49.432;8.680;2022-10-28T12:33:46;21.80;99.90
10417;DHT22;62605;49.432;8.680;2022-10-28T12:36:23;21.90;99.90
10417;DHT22;62605;49.432;8.680;2022-10-28T12:38:58;22.00;99.90
10417;DHT22;62605;49.432;8.680;2022-10-28T12:41:39;22.00;99.90
10417;DHT22;62605;49.432;8.680;2022-10-28T12:44:10;22.00;99.90
10417;DHT22;62605;49.432;8.680;2022-10-28T12:46:49;22.00;99.90
10417;DHT22;62605;49.432;8.680;2022-10-28T12:49:24;22.00;99.90
10417;DHT22;62605;49.432;8.680;2022-10-28T12:51:56;22.10;98.50
10417;DHT22;62605;49.432;8.680;2022-10-28T12:54:31;22.10;97.10
10417;DHT22;62605;49.432;8.680;2022-10-28T12:57:08;22.00;96.00
10417;DHT22;62605;49.432;8.680;2022-10-28T12:59:38;22.10;97.90
10417;DHT22;62605;49.432;8.680;2022-10-28T13:02:16;22.20;94.80
10417;DHT22;62605;49.432;8.680;2022-10-28T13:04:48;22.30;91.50
10417;DHT22;62605;49.432;8.680;2022-10-28T13:07:46;22.60;93.90
10417;DHT22;62605;49.432;8.680;2022-10-28T13:10:22;22.70;92.80
10417;DHT22;62605;49.432;8.680;2022-10-28T13:13:13;22.80;90.00
10417;DHT22;62605;49.432;8.680;2022-10-28T13:16:09;22.90;70.70
10417;DHT22;62605;49.432;8.680;2022-10-28T13:19:02;22.80;65.30
10417;DHT22;62605;49.432;8.680;2022-10-28T13:21:55;22.80;51.50
10417;DHT22;62605;49.432;8.680;2022-10-28T13:24:27;22.70;72.00
10417;DHT22;62605;49.432;8.680;2022-10-28T13:27:01;22.70;38.00
10417;DHT22;62605;49.432;8.680;2022-10-28T13:29:31;22.80;25.60
10417;DHT22;62605;49.432;8.680;2022-10-28T13:31:59;22.70;28.80
10417;DHT22;62605;49.432;8.680;2022-10-28T13:34:31;22.80;23.10
10417;DHT22;62605;49.432;8.680;2022-10-28T13:37:01;22.70;20.30
10417;DHT22;62605;49.432;8.680;2022-10-28T13:39:41;22.90;8.20
10417;DHT22;62605;49.432;8.680;2022-10-28T13:45:48;23.00;1.00
10417;DHT22;62605;49.432;8.680;2022-10-28T13:48:43;22.90;1.00
10417;DHT22;62605;49.432;8.680;2022-10-28T13:51:31;22.80;1.00
10417;DHT22;62605;49.432;8.680;2022-10-28T13:53:59;22.70;1.00
10417;DHT22;62605;49.432;8.680;2022-10-28T13:56:45;22.70;1.00
10417;DHT22;62605;49.432;8.680;2022-10-28T13:59:21;22.80;1.00
10417;DHT22;62605;49.432;8.680;2022-10-28T14:02:01;22.90;1.00
10417;DHT22;62605;49.432;8.680;2022-10-28T14:04:31;22.70;1.00
10417;DHT22;62605;49.432;8.680;2022-10-28T14:07:01;22.70;1.00
10417;DHT22;62605;49.432;8.680;2022-10-28T14:09:32;22.80;1.00
10417;DHT22;62605;49.432;8.680;2022-10-28T14:15:02;22.80;1.00
10417;DHT22;62605;49.432;8.680;2022-10-28T14:17:36;22.90;1.00
10417;DHT22;62605;49.432;8.680;2022-10-28T14:20:06;22.90;1.00
10417;DHT22;62605;49.432;8.680;2022-10-28T14:22:35;22.90;1.00
10417;DHT22;62605;49.432;8.680;2022-10-28T14:31:38;22.90;1.00
10417;DHT22;62605;49.432;8.680;2022-10-28T14:34:28;22.90;1.00
10417;DHT22;62605;49.432;8.680;2022-10-28T14:37:08;22.90;1.00
10417;DHT22;62605;49.432;8.680;2022-10-28T14:39:39;22.90;1.00
10417;DHT22;62605;49.432;8.680;2022-10-28T14:42:28;22.90;1.00
10417;DHT22;62605;49.432;8.680;2022-10-28T14:45:26;22.90;1.00
10417;DHT22;62605;49.432;8.680;2022-10-28T14:48:13;22.90;1.00
10417;DHT22;62605;49.432;8.680;2022-10-28T14:50:48;22.90;1.00
10417;DHT22;62605;49.432;8.680;2022-10-28T14:53:19;22.90;1.00
10417;DHT22;62605;49.432;8.680;2022-10-28T14:55:52;23.00;1.00
10417;DHT22;62605;49.432;8.680;2022-10-28T14:58:27;22.90;1.00
10417;DHT22;62605;49.432;8.680;2022-10-28T15:03:42;22.80;1.00
10417;DHT22;62605;49.432;8.680;2022-10-28T15:06:30;22.70;1.00
10417;DHT22;62605;49.432;8.680;2022-10-28T15:09:22;22.70;1.00
10417;DHT22;62605;49.432;8.680;2022-10-28T15:11:53;22.70;1.00
10417;DHT22;62605;49.432;8.680;2022-10-28T15:14:31;22.70;1.00
10417;DHT22;62605;49.432;8.680;2022-10-28T15:17:02;22.60;1.00
10417;DHT22;62605;49.432;8.680;2022-10-28T15:19:33;22.70;1.00
10417;DHT22;62605;49.432;8.680;2022-10-28T15:22:04;22.50;1.00
10417;DHT22;62605;49.432;8.680;2022-10-28T15:24:32;22.40;1.00
10417;DHT22;62605;49.432;8.680;2022-10-28T15:26:59;22.40;1.00
10417;DHT22;62605;49.432;8.680;2022-10-28T15:29:28;22.50;1.00
10417;DHT22;62605;49.432;8.680;2022-10-28T15:32:10;22.50;1.00
10417;DHT22;62605;49.432;8.680;2022-10-28T15:34:39;22.30;1.00
10417;DHT22;62605;49.432;8.680;2022-10-28T15:37:07;22.10;1.00
10417;DHT22;62605;49.432;8.680;2022-10-28T15:39:35;22.10;1.00
10417;DHT22;62605;49.432;8.680;2022-10-28T15:42:29;22.00;1.00
10417;DHT22;62605;49.432;8.680;2022-10-28T15:45:00;21.90;1.00
10417;DHT22;62605;49.432;8.680;2022-10-28T15:47:30;21.90;1.00
10417;DHT22;62605;49.432;8.680;2022-10-28T15:50:20;21.90;1.00
10417;DHT22;62605;49.432;8.680;2022-10-28T15:52:50;21.90;1.00
10417;DHT22;62605;49.432;8.680;2022-10-28T15:55:36;21.80;1.00
10417;DHT22;62605;49.432;8.680;2022-10-28T15:58:30;21.70;1.00
10417;DHT22;62605;49.432;8.680;2022-10-28T16:01:00;21.70;1.00
10417;DHT22;62605;49.432;8.680;2022-10-28T16:03:41;21.70;1.00
10417;DHT22;62605;49.432;8.680;2022-10-28T16:06:21;21.50;1.00
10417;DHT22;62605;49.432;8.680;2022-10-28T16:08:59;21.30;1.00
10417;DHT22;62605;49.432;8.680;2022-10-28T16:11:27;21.20;1.00
10417;DHT22;62605;49.432;8.680;2022-10-28T16:13:55;21.20;1.00
10417;DHT22;62605;49.432;8.680;2022-10-28T16:16:27;21.20;1.00
10417;DHT22;62605;49.432;8.680;2022-10-28T16:19:04;21.00;1.00
10417;DHT22;62605;49.432;8.680;2022-10-28T16:21:33;21.00;1.00
10417;DHT22;62605;49.432;8.680;2022-10-28T16:24:01;20.90;1.00
10417;DHT22;62605;49.432;8.680;2022-10-28T16:26:30;20.90;1.00
10417;DHT22;62605;49.432;8.680;2022-10-28T16:28:59;20.80;1.00
10417;DHT22;62605;49.432;8.680;2022-10-28T16:31:29;20.80;1.00
10417;DHT22;62605;49.432;8.680;2022-10-28T16:33:58;20.70;1.00
10417;DHT22;62605;49.432;8.680;2022-10-28T16:36:26;20.60;1.00
10417;DHT22;62605;49.432;8.680;2022-10-28T16:38:54;20.60;1.00
10417;DHT22;62605;49.432;8.680;2022-10-28T16:41:22;20.50;1.00
10417;DHT22;62605;49.432;8.680;2022-10-28T16:43:50;20.40;1.00
10417;DHT22;62605;49.432;8.680;2022-10-28T16:46:17;20.50;1.00
10417;DHT22;62605;49.432;8.680;2022-10-28T16:48:45;20.30;1.00
10417;DHT22;62605;49.432;8.680;2022-10-28T16:51:14;20.20;1.00
10417;DHT22;62605;49.432;8.680;2022-10-28T16:53:42;20.20;1.00
10417;DHT22;62605;49.432;8.680;2022-10-28T16:56:12;20.10;1.00
10417;DHT22;62605;49.432;8.680;2022-10-28T16:58:40;20.20;1.00
10417;DHT22;62605;49.432;8.680;2022-10-28T17:01:09;20.10;1.00
10417;DHT22;62605;49.432;8.680;2022-10-28T17:03:36;19.90;1.00
10417;DHT22;62605;49.432;8.680;2022-10-28T17:06:07;19.90;1.00
10417;DHT22;62605;49.432;8.680;2022-10-28T17:08:34;19.90;1.00
10417;DHT22;62605;49.432;8.680;2022-10-28T17:11:01;19.80;1.00
10417;DHT22;62605;49.432;8.680;2022-10-28T17:13:29;19.80;1.00
10417;DHT22;62605;49.432;8.680;2022-10-28T17:15:56;19.60;1.00
10417;DHT22;62605;49.432;8.680;2022-10-28T17:18:23;19.50;1.00
10417;DHT22;62605;49.432;8.680;2022-10-28T17:20:58;19.50;1.00
10417;DHT22;62605;49.432;8.680;2022-10-28T17:23:27;19.50;1.00
10417;DHT22;62605;49.432;8.680;2022-10-28T17:25:55;19.40;1.00
10417;DHT22;62605;49.432;8.680;2022-10-28T17:28:24;19.50;1.00
10417;DHT22;62605;49.432;8.680;2022-10-28T17:30:52;19.40;1.00
10417;DHT22;62605;49.432;8.680;2022-10-28T17:33:19;19.50;1.00
10417;DHT22;62605;49.432;8.680;2022-10-28T17:35:46;19.50;1.00
10417;DHT22;62605;49.432;8.680;2022-10-28T17:38:13;19.50;1.00
10417;DHT22;62605;49.432;8.680;2022-10-28T17:40:41;19.50;1.00
10417;DHT22;62605;49.432;8.680;2022-10-28T17:43:08;19.40;1.00
10417;DHT22;62605;49.432;8.680;2022-10-28T17:45:37;19.50;12.50
10417;DHT22;62605;49.432;8.680;2022-10-28T17:48:05;19.40;1.00
10417;DHT22;62605;49.432;8.680;2022-10-28T17:50:32;19.30;1.00
10417;DHT22;62605;49.432;8.680;2022-10-28T17:52:59;19.30;5.50
10417;DHT22;62605;49.432;8.680;2022-10-28T17:55:26;19.30;7.60
10417;DHT22;62605;49.432;8.680;2022-10-28T17:57:56;19.20;9.80
10417;DHT22;62605;49.432;8.680;2022-10-28T18:00:24;19.20;16.60
10417;DHT22;62605;49.432;8.680;2022-10-28T18:02:54;19.20;17.70
10417;DHT22;62605;49.432;8.680;2022-10-28T18:05:26;19.20;19.50
10417;DHT22;62605;49.432;8.680;2022-10-28T18:07:54;19.20;20.90
10417;DHT22;62605;49.432;8.680;2022-10-28T18:10:23;19.30;22.10
10417;DHT22;62605;49.432;8.680;2022-10-28T18:12:50;19.20;24.70
10417;DHT22;62605;49.432;8.680;2022-10-28T18:15:24;19.10;28.70
10417;DHT22;62605;49.432;8.680;2022-10-28T18:17:52;19.10;31.30
10417;DHT22;62605;49.432;8.680;2022-10-28T18:20:19;18.90;38.60
10417;DHT22;62605;49.432;8.680;2022-10-28T18:22:47;18.90;47.10
10417;DHT22;62605;49.432;8.680;2022-10-28T18:25:14;18.90;52.10
10417;DHT22;62605;49.432;8.680;2022-10-28T18:27:44;19.00;51.80
10417;DHT22;62605;49.432;8.680;2022-10-28T18:30:11;19.00;55.10
10417;DHT22;62605;49.432;8.680;2022-10-28T18:32:40;18.90;63.70
10417;DHT22;62605;49.432;8.680;2022-10-28T18:35:07;18.90;65.50
10417;DHT22;62605;49.432;8.680;2022-10-28T18:37:34;18.90;74.60
10417;DHT22;62605;49.432;8.680;2022-10-28T18:40:01;19.00;74.90
10417;DHT22;62605;49.432;8.680;2022-10-28T18:42:30;18.90;78.10
10417;DHT22;62605;49.432;8.680;2022-10-28T18:44:58;18.90;79.00
10417;DHT22;62605;49.432;8.680;2022-10-28T18:47:25;19.00;82.90
10417;DHT22;62605;49.432;8.680;2022-10-28T18:49:53;18.90;88.20
10417;DHT22;62605;49.432;8.680;2022-10-28T18:52:21;18.80;93.20
10417;DHT22;62605;49.432;8.680;2022-10-28T18:54:48;18.80;99.90
10417;DHT22;62605;49.432;8.680;2022-10-28T18:57:15;18.70;99.90
10417;DHT22;62605;49.432;8.680;2022-10-28T18:59:43;18.70;99.90
10417;DHT22;62605;49.432;8.680;2022-10-28T19:02:10;18.70;99.90
10417;DHT22;62605;49.432;8.680;2022-10-28T19:04:38;18.80;99.90
10417;DHT22;62605;49.432;8.680;2022-10-28T19:07:06;18.80;99.90
10417;DHT22;62605;49.432;8.680;2022-10-28T19:09:34;18.80;99.90
10417;DHT22;62605;49.432;8.680;2022-10-28T19:12:01;18.70;99.90
10417;DHT22;62605;49.432;8.680;2022-10-28T19:14:28;18.70;99.90
10417;DHT22;62605;49.432;8.680;2022-10-28T19:16:56;18.70;99.90
10417;DHT22;62605;49.432;8.680;2022-10-28T19:19:23;18.70;99.90
10417;DHT22;62605;49.432;8.680;2022-10-28T19:21:51;18.70;99.90
10417;DHT22;62605;49.432;8.680;2022-10-28T19:24:21;18.70;99.90
10417;DHT22;62605;49.432;8.680;2022-10-28T19:26:49;18.70;99.90
10417;DHT22;62605;49.432;8.680;2022-10-28T19:29:18;18.40;99.90
10417;DHT22;62605;49.432;8.680;2022-10-28T19:31:46;18.50;99.90
10417;DHT22;62605;49.432;8.680;2022-10-28T19:34:14;18.40;99.90
10417;DHT22;62605;49.432;8.680;2022-10-28T19:36:42;18.20;99.90
10417;DHT22;62605;49.432;8.680;2022-10-28T19:39:09;18.20;99.90
10417;DHT22;62605;49.432;8.680;2022-10-28T19:41:37;18.10;99.90
10417;DHT22;62605;49.432;8.680;2022-10-28T19:44:06;18.10;99.90
10417;DHT22;62605;49.432;8.680;2022-10-28T19:46:44;18.10;99.90
10417;DHT22;62605;49.432;8.680;2022-10-28T19:49:14;18.50;99.90
10417;DHT22;62605;49.432;8.680;2022-10-28T19:51:41;18.60;99.90
10417;DHT22;62605;49.432;8.680;2022-10-28T19:54:10;18.60;99.90
10417;DHT22;62605;49.432;8.680;2022-10-28T19:56:42;18.50;99.90
10417;DHT22;62605;49.432;8.680;2022-10-28T19:59:12;18.50;99.90
10417;DHT22;62605;49.432;8.680;2022-10-28T20:01:41;18.60;99.90
10417;DHT22;62605;49.432;8.680;2022-10-28T20:04:10;18.60;99.90
10417;DHT22;62605;49.432;8.680;2022-10-28T20:06:42;18.50;99.90
10417;DHT22;62605;49.432;8.680;2022-10-28T20:09:09;18.50;99.90
10417;DHT22;62605;49.432;8.680;2022-10-28T20:11:39;18.50;99.90
10417;DHT22;62605;49.432;8.680;2022-10-28T20:14:07;18.40;99.90
10417;DHT22;62605;49.432;8.680;2022-10-28T20:16:36;18.50;99.90
10417;DHT22;62605;49.432;8.680;2022-10-28T20:19:04;18.40;99.90
10417;DHT22;62605;49.432;8.680;2022-10-28T20:21:33;18.40;99.90
10417;DHT22;62605;49.432;8.680;2022-10-28T20:24:03;18.40;99.90
10417;DHT22;62605;49.432;8.680;2022-10-28T20:26:32;18.30;99.90
10417;DHT22;62605;49.432;8.680;2022-10-28T20:29:02;18.10;99.90
10417;DHT22;62605;49.432;8.680;2022-10-28T20:31:33;18.20;99.90
10417;DHT22;62605;49.432;8.680;2022-10-28T20:34:02;18.10;99.90
10417;DHT22;62605;49.432;8.680;2022-10-28T20:36:33;18.20;99.90
10417;DHT22;62605;49.432;8.680;2022-10-28T20:39:02;18.20;99.90
10417;DHT22;62605;49.432;8.680;2022-10-28T20:41:31;18.20;99.90
10417;DHT22;62605;49.432;8.680;2022-10-28T20:43:58;18.20;99.90
10417;DHT22;62605;49.432;8.680;2022-10-28T20:46:29;18.20;99.90
10417;DHT22;62605;49.432;8.680;2022-10-28T20:48:56;18.20;99.90
10417;DHT22;62605;49.432;8.680;2022-10-28T20:51:27;18.20;99.90
10417;DHT22;62605;49.432;8.680;2022-10-28T20:53:55;18.30;99.90
10417;DHT22;62605;49.432;8.680;2022-10-28T20:56:24;18.30;99.90
10417;DHT22;62605;49.432;8.680;2022-10-28T20:58:52;18.20;99.90
10417;DHT22;62605;49.432;8.680;2022-10-28T21:01:22;18.30;99.90
10417;DHT22;62605;49.432;8.680;2022-10-28T21:03:52;18.30;99.90
10417;DHT22;62605;49.432;8.680;2022-10-28T21:06:21;18.30;99.90
10417;DHT22;62605;49.432;8.680;2022-10-28T21:08:48;18.20;99.90
10417;DHT22;62605;49.432;8.680;2022-10-28T21:11:16;18.00;99.90
10417;DHT22;62605;49.432;8.680;2022-10-28T21:13:48;18.00;99.90
10417;DHT22;62605;49.432;8.680;2022-10-28T21:16:17;17.90;99.90
10417;DHT22;62605;49.432;8.680;2022-10-28T21:18:44;17.80;99.90
10417;DHT22;62605;49.432;8.680;2022-10-28T21:21:13;17.70;99.90
10417;DHT22;62605;49.432;8.680;2022-10-28T21:23:40;17.60;99.90
10417;DHT22;62605;49.432;8.680;2022-10-28T21:26:10;17.60;99.90
10417;DHT22;62605;49.432;8.680;2022-10-28T21:28:37;17.60;99.90
10417;DHT22;62605;49.432;8.680;2022-10-28T21:31:07;17.60;99.90
10417;DHT22;62605;49.432;8.680;2022-10-28T21:33:35;17.50;99.90
10417;DHT22;62605;49.432;8.680;2022-10-28T21:36:04;17.60;99.90
10417;DHT22;62605;49.432;8.680;2022-10-28T21:38:33;17.50;99.90
10417;DHT22;62605;49.432;8.680;2022-10-28T21:41:02;17.40;99.90
10417;DHT22;62605;49.432;8.680;2022-10-28T21:43:31;17.30;99.90
10417;DHT22;62605;49.432;8.680;2022-10-28T21:45:58;17.20;99.90
10417;DHT22;62605;49.432;8.680;2022-10-28T21:48:26;17.10;1.00
10417;DHT22;62605;49.432;8.680;2022-10-28T21:50:54;17.10;99.90
10417;DHT22;62605;49.432;8.680;2022-10-28T21:53:22;17.20;99.90
10417;DHT22;62605;49.432;8.680;2022-10-28T21:55:51;17.30;99.90
10417;DHT22;62605;49.432;8.680;2022-10-28T21:58:19;17.40;99.90
10417;DHT22;62605;49.432;8.680;2022-10-28T22:00:46;17.40;99.90
10417;DHT22;62605;49.432;8.680;2022-10-28T22:03:13;17.40;99.90
10417;DHT22;62605;49.432;8.680;2022-10-28T22:05:48;17.30;99.90
10417;DHT22;62605;49.432;8.680;2022-10-28T22:08:15;17.30;99.90
10417;DHT22;62605;49.432;8.680;2022-10-28T22:10:42;17.40;99.90
10417;DHT22;62605;49.432;8.680;2022-10-28T22:13:11;17.30;99.90
10417;DHT22;62605;49.432;8.680;2022-10-28T22:15:38;17.20;99.90
10417;DHT22;62605;49.432;8.680;2022-10-28T22:18:05;17.00;99.90
10417;DHT22;62605;49.432;8.680;2022-10-28T22:20:33;16.90;99.90
10417;DHT22;62605;49.432;8.680;2022-10-28T22:23:00;16.70;1.00
10417;DHT22;62605;49.432;8.680;2022-10-28T22:25:27;16.70;1.00
10417;DHT22;62605;49.432;8.680;2022-10-28T22:27:54;16.90;1.00
10417;DHT22;62605;49.432;8.680;2022-10-28T22:30:22;16.90;1.00
10417;DHT22;62605;49.432;8.680;2022-10-28T22:32:49;16.80;1.00
10417;DHT22;62605;49.432;8.680;2022-10-28T22:35:16;17.00;1.00
10417;DHT22;62605;49.432;8.680;2022-10-28T22:37:44;17.10;1.00
10417;DHT22;62605;49.432;8.680;2022-10-28T22:40:12;17.20;1.00
10417;DHT22;62605;49.432;8.680;2022-10-28T22:42:39;17.30;1.00
10417;DHT22;62605;49.432;8.680;2022-10-28T22:45:07;17.20;1.00
10417;DHT22;62605;49.432;8.680;2022-10-28T22:47:35;17.10;1.00
10417;DHT22;62605;49.432;8.680;2022-10-28T22:50:03;17.20;1.00
10417;DHT22;62605;49.432;8.680;2022-10-28T22:52:30;17.30;1.00
10417;DHT22;62605;49.432;8.680;2022-10-28T22:54:56;17.30;1.00
10417;DHT22;62605;49.432;8.680;2022-10-28T22:57:23;17.30;1.00
10417;DHT22;62605;49.432;8.680;2022-10-28T22:59:50;17.40;99.90
10417;DHT22;62605;49.432;8.680;2022-10-28T23:02:17;17.40;99.90
10417;DHT22;62605;49.432;8.680;2022-10-28T23:04:46;17.50;99.90
10417;DHT22;62605;49.432;8.680;2022-10-28T23:07:13;17.50;99.90
10417;DHT22;62605;49.432;8.680;2022-10-28T23:09:40;17.50;99.90
10417;DHT22;62605;49.432;8.680;2022-10-28T23:12:07;17.50;99.90
10417;DHT22;62605;49.432;8.680;2022-10-28T23:14:35;17.50;99.90
10417;DHT22;62605;49.432;8.680;2022-10-28T23:17:02;17.50;99.90
10417;DHT22;62605;49.432;8.680;2022-10-28T23:19:30;17.40;99.90
10417;DHT22;62605;49.432;8.680;2022-10-28T23:21:59;17.50;99.90
10417;DHT22;62605;49.432;8.680;2022-10-28T23:24:26;17.50;99.90
10417;DHT22;62605;49.432;8.680;2022-10-28T23:26:53;17.60;99.90
10417;DHT22;62605;49.432;8.680;2022-10-28T23:29:20;17.60;99.90
10417;DHT22;62605;49.432;8.680;2022-10-28T23:31:47;17.60;99.90
10417;DHT22;62605;49.432;8.680;2022-10-28T23:34:14;17.60;99.90
10417;DHT22;62605;49.432;8.680;2022-10-28T23:36:42;17.70;99.90
10417;DHT22;62605;49.432;8.680;2022-10-28T23:39:11;17.80;99.90
10417;DHT22;62605;49.432;8.680;2022-10-28T23:41:39;17.80;99.90
10417;DHT22;62605;49.432;8.680;2022-10-28T23:44:06;17.80;99.90
10417;DHT22;62605;49.432;8.680;2022-10-28T23:46:33;17.80;99.90
10417;DHT22;62605;49.432;8.680;2022-10-28T23:49:00;17.80;99.90
10417;DHT22;62605;49.432;8.680;2022-10-28T23:51:27;17.80;99.90
10417;DHT22;62605;49.432;8.680;2022-10-28T23:53:54;17.70;99.90
10417;DHT22;62605;49.432;8.680;2022-10-28T23:56:23;17.70;99.90
10417;DHT22;62605;49.432;8.680;2022-10-28T23:58:50;17.70;99.90
